Time;durP1;ratioP1;P1;durP2;ratioP2;P2;SDS_P1;SDS_P2;PMS_P1;PMS_P2;Temp;Humidity;BMP_temperature;BMP_pressure;BME280_temperature;BME280_humidity;BME280_pressure;Samples;Min_cycle;Max_cycle;Signal;HPM_P1;HPM_P2
2023/08/26 00:01:25;;;;;;;26.87;21.20;;;;;;;13.19;100.00;101183.88;4934544;29;20036;-65
2023/08/26 00:03:50;;;;;;;25.27;19.63;;;;;;;13.59;100.00;101237.31;4938159;29;20043;-65
2023/08/26 00:06:16;;;;;;;24.43;21.23;;;;;;;13.58;100.00;101237.47;4938413;29;20039;-65
2023/08/26 00:08:41;;;;;;;25.60;20.73;;;;;;;13.55;100.00;101237.81;4938164;29;20549;-65
2023/08/26 00:11:07;;;;;;;27.77;20.27;;;;;;;13.45;100.00;101229.13;4937787;29;20522;-65
2023/08/26 00:13:32;;;;;;;25.23;19.77;;;;;;;13.49;100.00;101233.16;4920936;29;20535;-63
2023/08/26 00:15:58;;;;;;;26.20;20.33;;;;;;;13.55;100.00;101243.16;4937978;29;20028;-64
2023/08/26 00:18:23;;;;;;;23.87;19.23;;;;;;;13.41;100.00;101214.44;4937813;29;20357;-63
2023/08/26 00:20:51;;;;;;;26.10;19.17;;;;;;;13.46;100.00;101228.13;4937876;29;20023;-65
2023/08/26 00:23:17;;;;;;;27.63;20.67;;;;;;;13.52;100.00;101238.16;4936681;29;20036;-66
2023/08/26 00:25:43;;;;;;;24.07;18.63;;;;;;;13.49;100.00;101235.81;4937771;29;20031;-66
2023/08/26 00:28:09;;;;;;;24.27;18.97;;;;;;;13.51;100.00;101239.16;4937823;29;20054;-65
2023/08/26 00:30:34;;;;;;;22.53;17.40;;;;;;;13.48;100.00;101243.00;4937811;29;20134;-66
2023/08/26 00:33:00;;;;;;;26.17;20.90;;;;;;;13.47;100.00;101235.16;4937837;29;20379;-65
2023/08/26 00:35:25;;;;;;;25.53;19.20;;;;;;;13.40;100.00;101229.66;4920542;29;20070;-65
2023/08/26 00:37:51;;;;;;;23.63;18.07;;;;;;;13.41;100.00;101236.69;4937444;29;20087;-63
2023/08/26 00:40:17;;;;;;;21.47;19.23;;;;;;;13.49;100.00;101238.50;4937347;29;20164;-66
2023/08/26 00:42:43;;;;;;;20.40;17.40;;;;;;;12.72;100.00;101136.41;4937103;29;20341;-66
2023/08/26 00:45:09;;;;;;;21.63;18.20;;;;;;;13.38;100.00;101233.50;4920380;29;20379;-65
2023/08/26 00:47:36;;;;;;;28.33;17.50;;;;;;;13.47;100.00;101244.03;4937821;29;20039;-64
2023/08/26 00:50:03;;;;;;;22.90;18.47;;;;;;;13.49;100.00;101249.19;4937403;29;20028;-64
2023/08/26 00:52:29;;;;;;;19.07;16.80;;;;;;;13.47;100.00;101241.34;4937155;29;20036;-65
2023/08/26 00:54:55;;;;;;;22.30;18.27;;;;;;;13.41;100.00;101231.31;4936997;29;20122;-66
2023/08/26 00:57:21;;;;;;;20.73;17.00;;;;;;;13.56;100.00;101253.69;4937212;29;20106;-66
2023/08/26 00:59:47;;;;;;;22.97;17.37;;;;;;;13.55;100.00;101254.69;4937280;29;20438;-66
2023/08/26 01:02:12;;;;;;;17.17;14.47;;;;;;;13.49;100.00;101233.16;4936989;29;20032;-66
2023/08/26 01:04:38;;;;;;;22.40;17.60;;;;;;;13.58;100.00;101235.63;4937076;29;20055;-64
2023/08/26 01:07:04;;;;;;;19.13;14.40;;;;;;;13.61;100.00;101237.16;4936958;29;20078;-68
2023/08/26 01:09:29;;;;;;;19.07;14.40;;;;;;;13.67;100.00;101246.34;4936730;29;20433;-66
2023/08/26 01:12:28;;;;;;;17.67;13.90;;;;;;;13.71;100.00;101240.47;4936855;29;20032;-67
2023/08/26 01:15:05;;;;;;;16.37;13.83;;;;;;;13.72;100.00;101231.41;4936295;29;20118;-65
2023/08/26 01:17:31;;;;;;;16.87;14.70;;;;;;;13.73;100.00;101230.41;4936757;29;20032;-66
2023/08/26 01:19:59;;;;;;;18.87;14.27;;;;;;;13.71;100.00;101232.44;4936523;29;20050;-64
2023/08/26 01:22:28;;;;;;;19.85;14.45;;;;;;;13.69;100.00;101229.09;4936994;29;20114;-66
2023/08/26 01:24:54;;;;;;;18.37;13.27;;;;;;;13.79;100.00;101244.94;4936700;29;20035;-66
2023/08/26 01:27:20;;;;;;;16.80;13.50;;;;;;;13.76;100.00;101234.59;4936644;29;20147;-65
2023/08/26 01:29:45;;;;;;;18.07;14.83;;;;;;;13.79;100.00;101234.25;4919585;29;20118;-64
2023/08/26 01:32:35;;;;;;;19.30;14.97;;;;;;;13.79;100.00;101235.06;4919330;29;20498;-66
2023/08/26 01:35:05;;;;;;;19.20;13.87;;;;;;;13.68;100.00;101227.44;4936846;29;20035;-65
2023/08/26 01:37:31;;;;;;;20.97;15.43;;;;;;;13.71;100.00;101232.44;4937190;29;20031;-64
2023/08/26 01:40:01;;;;;;;17.83;14.70;;;;;;;13.62;100.00;101220.91;4943214;29;20032;-66
2023/08/26 01:42:30;;;;;;;17.17;14.93;;;;;;;13.65;100.00;101230.44;4943152;29;20023;-63
2023/08/26 01:44:55;;;;;;;16.43;14.07;;;;;;;13.65;100.00;101238.47;4942396;29;20063;-63
2023/08/26 01:47:21;;;;;;;20.23;15.73;;;;;;;13.55;100.00;101216.41;4945105;29;20420;-65
2023/08/26 01:49:46;;;;;;;17.67;15.00;;;;;;;13.62;100.00;101223.59;4936774;29;20351;-65
2023/08/26 01:52:12;;;;;;;19.27;14.77;;;;;;;13.66;100.00;101234.78;4936266;29;20034;-67
2023/08/26 01:54:38;;;;;;;19.10;15.40;;;;;;;13.57;100.00;101219.75;4919157;29;20126;-65
2023/08/26 01:57:03;;;;;;;17.00;14.63;;;;;;;13.59;100.00;101228.47;4919020;29;20082;-67
2023/08/26 01:59:29;;;;;;;18.27;14.77;;;;;;;13.60;100.00;101227.44;4936961;29;20471;-64
2023/08/26 02:01:54;;;;;;;20.47;16.27;;;;;;;13.63;100.00;101232.47;4938310;29;20082;-64
2023/08/26 02:04:20;;;;;;;18.37;15.53;;;;;;;13.69;100.00;101239.81;4937140;29;20036;-65
2023/08/26 02:06:46;;;;;;;19.37;16.33;;;;;;;13.70;100.00;101236.13;4921119;29;20036;-63
2023/08/26 02:09:11;;;;;;;24.27;19.23;;;;;;;13.75;100.00;101244.47;4920454;29;20039;-65
2023/08/26 02:11:37;;;;;;;20.27;17.40;;;;;;;13.75;100.00;101240.94;4935782;29;20036;-64
2023/08/26 02:14:02;;;;;;;21.20;16.90;;;;;;;13.68;100.00;101232.78;4935718;29;20030;-66
2023/08/26 02:16:28;;;;;;;25.13;15.87;;;;;;;13.51;100.00;101204.38;4935813;29;20170;-65
2023/08/26 02:18:53;;;;;;;18.77;15.80;;;;;;;13.74;100.00;101236.59;4902947;29;20023;-64
2023/08/26 02:21:19;;;;;;;19.73;15.93;;;;;;;13.77;100.00;101245.13;4935852;29;20023;-62
2023/08/26 02:23:44;;;;;;;21.37;17.40;;;;;;;13.79;100.00;101240.44;4934356;29;20086;-64
2023/08/26 02:26:10;;;;;;;24.00;16.93;;;;;;;13.55;100.00;101209.22;4934701;29;20118;-64
2023/08/26 02:28:35;;;;;;;18.80;16.33;;;;;;;13.85;100.00;101254.97;4935458;29;20051;-65
2023/08/26 02:31:04;;;;;;;22.00;16.13;;;;;;;13.82;100.00;101249.97;4918404;29;20393;-63
2023/08/26 02:33:30;;;;;;;19.77;16.97;;;;;;;13.80;100.00;101242.09;4935578;29;20098;-63
2023/08/26 02:35:55;;;;;;;20.80;17.47;;;;;;;13.81;100.00;101245.59;4918428;29;20031;-66
2023/08/26 02:38:21;;;;;;;19.43;16.67;;;;;;;13.94;100.00;101260.16;4918496;29;20110;-64
2023/08/26 02:41:27;;;;;;;22.47;17.23;;;;;;;13.98;100.00;101255.28;4939907;29;20122;-67
2023/08/26 02:43:52;;;;;;;21.73;16.23;;;;;;;13.92;100.00;101254.13;4935343;29;20031;-65
2023/08/26 02:46:18;;;;;;;19.50;15.83;;;;;;;13.92;100.00;101254.13;4935369;29;20095;-63
2023/08/26 02:48:43;;;;;;;21.47;17.07;;;;;;;13.86;100.00;101248.59;4935322;29;20023;-64
2023/08/26 02:51:09;;;;;;;22.63;19.57;;;;;;;13.78;100.00;101227.22;4918562;29;20032;-65
2023/08/26 02:53:34;;;;;;;28.03;19.97;;;;;;;14.01;100.00;101265.63;4934978;29;20460;-65
2023/08/26 02:56:00;;;;;;;22.50;18.87;;;;;;;13.93;100.00;101252.28;4935119;29;20127;-67
2023/08/26 02:58:26;;;;;;;25.73;18.40;;;;;;;13.80;100.00;101234.06;4934964;29;20032;-67
2023/08/26 03:00:52;;;;;;;25.07;18.23;;;;;;;13.93;100.00;101246.94;4935052;29;20032;-64
2023/08/26 03:03:18;;;;;;;24.07;18.97;;;;;;;14.09;100.00;101260.25;4934928;29;20126;-62
2023/08/26 03:05:43;;;;;;;26.17;19.53;;;;;;;14.10;100.00;101255.72;4934950;29;20111;-63
2023/08/26 03:08:09;;;;;;;21.87;16.97;;;;;;;14.07;100.00;101250.72;4934748;29;20028;-66
2023/08/26 03:10:35;;;;;;;23.30;17.97;;;;;;;14.10;100.00;101255.72;4934875;29;20464;-66
2023/08/26 03:13:00;;;;;;;21.83;16.93;;;;;;;14.12;100.00;101245.66;4935017;29;20035;-63
2023/08/26 03:15:29;;;;;;;26.03;20.03;;;;;;;14.09;100.00;101235.31;4934786;29;20039;-64
2023/08/26 03:17:56;;;;;;;26.50;18.43;;;;;;;14.13;100.00;101252.69;4934956;29;20043;-65
2023/08/26 03:20:22;;;;;;;17.50;15.50;;;;;;;14.16;100.00;101246.97;4935099;29;20050;-66
2023/08/26 03:22:48;;;;;;;18.30;16.40;;;;;;;14.08;100.00;101228.28;4935015;29;20383;-65
2023/08/26 03:25:13;;;;;;;18.87;16.53;;;;;;;14.13;100.00;101236.63;4934970;29;20027;-66
2023/08/26 03:27:39;;;;;;;22.77;17.10;;;;;;;14.22;100.00;101251.66;4934854;29;20063;-66
2023/08/26 03:30:08;;;;;;;18.33;16.27;;;;;;;14.24;100.00;101253.16;4934942;29;20141;-65
2023/08/26 03:32:33;;;;;;;18.83;15.10;;;;;;;14.28;100.00;101250.97;4917991;29;20114;-62
2023/08/26 03:34:59;;;;;;;19.13;15.10;;;;;;;14.27;100.00;101244.78;4935206;29;20551;-64
2023/08/26 03:37:25;;;;;;;20.27;14.00;;;;;;;14.36;100.00;101258.94;4935695;29;20035;-64
2023/08/26 03:39:50;;;;;;;19.10;13.07;;;;;;;14.40;100.00;101248.72;4938539;29;20159;-67
2023/08/26 03:42:16;;;;;;;15.67;12.73;;;;;;;14.29;100.00;101225.84;4938543;29;20031;-63
2023/08/26 03:44:41;;;;;;;14.77;13.20;;;;;;;14.49;100.00;101253.91;4938493;29;20491;-65
2023/08/26 03:47:07;;;;;;;18.07;13.23;;;;;;;14.46;100.00;101238.19;4938252;29;20122;-64
2023/08/26 03:49:32;;;;;;;13.90;12.00;;;;;;;14.59;100.00;101252.84;4938430;29;20027;-65
2023/08/26 03:51:58;;;;;;;13.43;11.63;;;;;;;14.54;100.00;101240.81;4938055;29;20420;-65
2023/08/26 03:54:24;;;;;;;12.90;11.53;;;;;;;14.40;100.00;101221.91;4938297;29;20027;-63
2023/08/26 03:56:49;;;;;;;13.97;12.20;;;;;;;14.43;100.00;101249.22;4938467;29;20027;-66
2023/08/26 03:59:15;;;;;;;13.70;12.30;;;;;;;14.34;100.00;101228.81;4921389;29;20136;-63
2023/08/26 04:01:40;;;;;;;13.03;11.63;;;;;;;14.43;100.00;101243.88;4938294;29;20035;-65
2023/08/26 04:04:06;;;;;;;13.03;11.67;;;;;;;14.43;100.00;101241.19;4921035;29;20035;-65
2023/08/26 04:06:33;;;;;;;14.87;12.53;;;;;;;14.48;100.00;101246.88;4937954;29;20066;-66
2023/08/26 04:09:02;;;;;;;13.80;12.30;;;;;;;14.48;100.00;101236.16;4921227;29;20036;-66
2023/08/26 04:11:27;;;;;;;13.67;12.27;;;;;;;14.50;100.00;101228.78;4920914;29;20040;-63
2023/08/26 04:13:53;;;;;;;12.60;11.30;;;;;;;14.62;100.00;101233.72;4937913;29;20353;-63
2023/08/26 04:16:21;;;;;;;13.53;11.30;;;;;;;14.75;100.00;101239.34;4937784;29;20033;-65
2023/08/26 04:18:47;;;;;;;12.52;11.23;;;;;;;14.85;100.00;101240.78;4937566;29;20118;-63
2023/08/26 04:21:13;;;;;;;12.80;11.40;;;;;;;15.00;100.00;101239.97;4937610;29;20043;-63
2023/08/26 04:23:39;;;;;;;14.23;12.23;;;;;;;15.16;100.00;101239.84;4937540;29;20035;-64
2023/08/26 04:26:04;;;;;;;13.93;12.43;;;;;;;15.23;100.00;101237.28;4920650;29;20023;-66
2023/08/26 04:28:30;;;;;;;13.87;12.53;;;;;;;15.25;100.00;101235.25;4937489;29;20080;-66
2023/08/26 04:30:57;;;;;;;16.27;13.23;;;;;;;15.26;100.00;101218.13;4937756;29;20119;-64
2023/08/26 04:33:23;;;;;;;12.93;11.57;;;;;;;15.53;100.00;101247.06;4937625;29;20028;-67
2023/08/26 04:35:48;;;;;;;14.03;12.57;;;;;;;15.57;100.00;101232.25;4937327;29;20039;-64
2023/08/26 04:38:14;;;;;;;10.93;9.47;;;;;;;15.68;100.00;101234.53;4920597;29;20070;-67
2023/08/26 04:40:41;;;;;;;11.13;10.00;;;;;;;15.71;100.00;101239.53;4937283;29;20034;-64
2023/08/26 04:43:10;;;;;;;10.88;9.73;;;;;;;15.69;100.00;101230.81;4937507;29;20475;-65
2023/08/26 04:45:37;;;;;;;12.03;10.63;;;;;;;15.69;100.00;101238.88;4920234;29;20039;-65
2023/08/26 04:48:04;;;;;;;10.53;8.83;;;;;;;15.62;100.00;101240.63;4920170;29;20034;-66
2023/08/26 04:50:30;;;;;;;9.93;8.93;;;;;;;15.59;100.00;101238.28;4936252;29;20158;-66
2023/08/26 04:52:55;;;;;;;11.33;9.20;;;;;;;15.62;100.00;101246.00;4937224;29;20448;-64
2023/08/26 04:55:20;;;;;;;11.23;9.43;;;;;;;15.60;100.00;101229.22;4937011;29;20404;-62
2023/08/26 04:57:46;;;;;;;9.33;8.53;;;;;;;15.42;100.00;101193.81;4937054;29;20541;-62
2023/08/26 05:00:12;;;;;;;11.27;7.47;;;;;;;15.68;100.00;101245.25;4937052;29;20032;-65
2023/08/26 05:02:38;;;;;;;9.07;7.73;;;;;;;15.56;100.00;101237.78;4937666;29;20126;-62
2023/08/26 05:05:04;;;;;;;12.93;7.67;;;;;;;15.51;100.00;101246.41;4937419;29;20383;-65
2023/08/26 05:07:31;;;;;;;11.13;9.53;;;;;;;15.49;100.00;101245.75;4936992;29;20024;-64
2023/08/26 05:09:57;;;;;;;9.60;7.90;;;;;;;15.47;100.00;101247.78;4937397;29;20054;-65
2023/08/26 05:12:22;;;;;;;9.63;7.97;;;;;;;15.53;100.00;101252.41;4937508;29;20484;-63
2023/08/26 05:14:48;;;;;;;9.57;8.67;;;;;;;15.50;100.00;101248.25;4937029;29;20070;-63
2023/08/26 05:17:13;;;;;;;7.93;7.23;;;;;;;15.13;100.00;101190.09;4936795;29;20050;-64
2023/08/26 05:19:39;;;;;;;8.63;7.10;;;;;;;15.41;100.00;101224.38;4936514;29;20082;-64
2023/08/26 05:22:04;;;;;;;8.03;7.07;;;;;;;15.60;100.00;101250.69;4937137;29;20063;-66
2023/08/26 05:24:30;;;;;;;8.43;7.63;;;;;;;15.64;100.00;101251.19;4936158;29;20076;-65
2023/08/26 05:26:57;;;;;;;10.57;9.43;;;;;;;15.65;100.00;101234.91;4936401;29;20063;-64
2023/08/26 05:29:22;;;;;;;13.53;11.20;;;;;;;15.64;100.00;101224.34;4936336;29;20047;-66
2023/08/26 05:31:47;;;;;;;9.57;7.43;;;;;;;16.03;100.00;101250.91;4936540;29;20036;-66
2023/08/26 05:34:13;;;;;;;7.43;6.53;;;;;;;16.25;100.00;101255.34;4920199;29;20035;-64
2023/08/26 05:36:38;;;;;;;8.43;7.63;;;;;;;16.41;100.00;101248.91;4919613;29;20495;-65
2023/08/26 05:39:04;;;;;;;8.93;6.57;;;;;;;16.56;100.00;101255.09;4936853;29;20072;-65
2023/08/26 05:41:29;;;;;;;7.70;6.27;;;;;;;16.65;100.00;101263.84;4936485;29;20046;-65
2023/08/26 05:43:55;;;;;;;9.60;7.43;;;;;;;16.69;100.00;101249.03;4936473;29;20353;-65
2023/08/26 05:46:20;;;;;;;10.03;7.60;;;;;;;16.67;100.00;101234.94;4919228;29;20087;-65
2023/08/26 05:48:46;;;;;;;9.87;6.97;;;;;;;16.79;100.00;101238.81;4936279;29;20027;-65
2023/08/26 05:51:11;;;;;;;6.78;6.18;;;;;;;16.97;100.00;101251.81;4936216;29;20065;-63
2023/08/26 05:53:37;;;;;;;12.35;7.20;;;;;;;16.89;100.00;101239.31;4936325;29;20156;-65
2023/08/26 05:56:02;;;;;;;8.07;6.63;;;;;;;16.84;100.00;101230.16;4936181;29;20042;-68
2023/08/26 05:58:28;;;;;;;9.80;6.77;;;;;;;17.03;100.00;101251.84;4935898;29;20028;-67
2023/08/26 06:00:53;;;;;;;6.38;5.72;;;;;;;17.20;100.00;101241.66;4935777;29;20058;-62
2023/08/26 06:03:19;;;;;;;6.63;4.93;;;;;;;17.26;100.00;101245.44;4935987;29;20032;-68
2023/08/26 06:05:44;;;;;;;7.05;5.15;;;;;;;17.36;100.00;101251.34;4936195;29;20032;-64
2023/08/26 06:08:10;;;;;;;6.63;5.30;;;;;;;17.30;100.00;101238.63;4919036;29;20099;-64
2023/08/26 06:10:36;;;;;;;5.57;4.03;;;;;;;17.41;100.00;101238.13;4919343;29;20019;-62
2023/08/26 06:13:02;;;;;;;6.25;5.15;;;;;;;17.48;100.00;101238.16;4936972;29;20038;-63
2023/08/26 06:15:27;;;;;;;4.75;4.28;;;;;;;17.43;100.00;101227.16;4935878;29;20035;-65
2023/08/26 06:17:53;;;;;;;4.50;3.40;;;;;;;17.43;100.00;101246.84;4936087;29;20357;-63
2023/08/26 06:20:20;;;;;;;5.47;4.22;;;;;;;17.27;100.00;101241.72;4936064;29;20059;-64
2023/08/26 06:22:45;;;;;;;4.47;3.65;;;;;;;17.10;100.00;101251.94;4936182;29;20036;-63
2023/08/26 06:25:11;;;;;;;5.60;4.40;;;;;;;16.96;100.00;101253.66;4936762;29;20106;-64
2023/08/26 06:27:38;;;;;;;4.18;3.78;;;;;;;16.82;100.00;101254.56;4936216;29;20051;-65
2023/08/26 06:30:07;;;;;;;7.60;4.40;;;;;;;16.65;100.00;101237.81;4935285;29;20468;-65
2023/08/26 06:32:32;;;;;;;4.60;4.20;;;;;;;16.71;100.00;101257.75;4935338;29;20087;-64
2023/08/26 06:34:58;;;;;;;4.93;4.43;;;;;;;16.67;100.00;101257.28;4935407;29;20023;-64
2023/08/26 06:37:24;;;;;;;6.10;4.78;;;;;;;16.69;100.00;101266.00;4935425;29;20028;-63
2023/08/26 06:39:49;;;;;;;5.35;4.70;;;;;;;16.74;100.00;101265.44;4935205;29;20475;-65
2023/08/26 06:42:15;;;;;;;6.25;4.47;;;;;;;16.88;100.00;101269.94;4935314;29;20062;-67
2023/08/26 06:44:40;;;;;;;7.28;4.03;;;;;;;17.02;100.00;101268.19;4935512;29;20042;-65
2023/08/26 06:47:08;;;;;;;8.23;4.10;;;;;;;17.12;100.00;101254.44;4935373;29;20039;-64
2023/08/26 06:49:33;;;;;;;6.75;5.43;;;;;;;17.21;100.00;101251.41;4919262;29;20020;-66
2023/08/26 06:51:59;;;;;;;4.50;4.10;;;;;;;17.42;100.00;101272.09;4939019;29;20031;-67
2023/08/26 06:54:24;;;;;;;4.70;4.00;;;;;;;17.55;100.00;101271.34;4936814;29;20039;-63
2023/08/26 06:56:50;;;;;;;6.25;3.50;;;;;;;17.62;100.00;101269.53;4936598;29;20036;-63
2023/08/26 06:59:16;;;;;;;4.28;3.55;;;;;;;17.57;100.00;101280.91;4935140;29;20038;-66
2023/08/26 07:01:42;;;;;;;4.40;3.22;;;;;;;17.41;100.00;101262.34;4917811;29;20034;-63
2023/08/26 07:04:08;;;;;;;5.63;3.80;;;;;;;17.32;100.00;101271.56;4935131;29;20031;-65
2023/08/26 07:06:35;;;;;;;6.70;4.00;;;;;;;17.03;100.00;101256.41;4935707;29;20035;-64
2023/08/26 07:09:01;;;;;;;4.72;3.55;;;;;;;17.05;100.00;101273.19;4935484;29;20496;-67
2023/08/26 07:11:27;;;;;;;7.55;4.55;;;;;;;16.98;100.00;101273.13;4934829;29;20054;-63
2023/08/26 07:13:53;;;;;;;4.65;3.70;;;;;;;16.84;100.00;101265.97;4917713;29;20391;-66
2023/08/26 07:16:18;;;;;;;5.32;3.42;;;;;;;16.74;100.00;101251.97;4934790;29;20034;-67
2023/08/26 07:18:44;;;;;;;4.72;4.32;;;;;;;16.89;100.00;101277.00;4935382;29;20040;-67
2023/08/26 07:21:09;;;;;;;5.43;3.92;;;;;;;16.64;100.00;101227.25;4935072;29;20030;-63
2023/08/26 07:23:35;;;;;;;7.75;4.68;;;;;;;16.81;100.00;101257.44;4934809;29;20063;-64
2023/08/26 07:26:03;;;;;;;5.32;3.95;;;;;;;16.84;100.00;101268.66;4934616;29;20039;-63
2023/08/26 07:28:29;;;;;;;6.28;4.95;;;;;;;16.90;100.00;101273.28;4934766;29;20052;-64
2023/08/26 07:31:04;;;;;;;5.38;3.60;;;;;;;16.90;100.00;101257.13;4935350;29;20048;-65
2023/08/26 07:33:31;;;;;;;6.97;4.07;;;;;;;17.09;100.00;101284.44;4918374;29;20498;-65
2023/08/26 07:36:05;;;;;;;4.20;3.35;;;;;;;17.20;100.00;101294.66;4934630;29;20079;-64
2023/08/26 07:38:30;;;;;;;3.50;3.17;;;;;;;17.15;100.00;101280.97;4934742;29;20452;-67
2023/08/26 07:40:56;;;;;;;5.40;3.95;;;;;;;17.25;100.00;101273.38;4917345;29;20480;-67
2023/08/26 07:43:22;;;;;;;4.82;3.50;;;;;;;17.27;100.00;101268.63;4934310;29;20480;-65
2023/08/26 07:45:47;;;;;;;3.92;3.15;;;;;;;17.41;100.00;101286.59;4934723;29;20065;-63
2023/08/26 07:48:12;;;;;;;4.72;3.35;;;;;;;17.37;100.00;101277.22;4934759;29;20552;-64
2023/08/26 07:50:38;;;;;;;6.60;4.25;;;;;;;17.42;100.00;101276.66;4934597;29;20431;-63
2023/08/26 07:53:05;;;;;;;6.95;4.10;;;;;;;17.51;100.00;101287.06;4934558;29;20032;-65
2023/08/26 07:55:31;;;;;;;4.45;3.50;;;;;;;17.67;100.00;101287.81;4934914;29;20043;-70
2023/08/26 07:57:57;;;;;;;3.58;3.08;;;;;;;17.78;100.00;101292.69;4934863;29;20067;-64
2023/08/26 08:00:22;;;;;;;5.53;3.28;;;;;;;17.81;100.00;101285.03;4934838;29;20452;-64
2023/08/26 08:02:48;;;;;;;3.92;3.28;;;;;;;17.78;100.00;101279.22;4934483;29;20040;-68
2023/08/26 08:05:13;;;;;;;3.15;2.85;;;;;;;17.89;100.00;101295.66;4934505;29;20060;-65
2023/08/26 08:07:39;;;;;;;3.35;3.05;;;;;;;17.90;100.00;101278.44;4917616;29;20127;-66
2023/08/26 08:10:05;;;;;;;4.03;3.03;;;;;;;17.97;100.00;101275.00;4917364;29;20040;-64
2023/08/26 08:12:30;;;;;;;3.88;2.88;;;;;;;18.01;100.00;101276.25;4934519;29;20035;-65
2023/08/26 08:14:55;;;;;;;9.63;3.45;;;;;;;18.15;100.00;101283.38;4936386;29;20035;-63
2023/08/26 08:17:21;;;;;;;3.45;2.97;;;;;;;18.22;100.00;101284.25;4938122;29;20032;-65
2023/08/26 08:19:47;;;;;;;4.38;2.83;;;;;;;18.29;100.00;101282.41;4937835;29;20027;-63
2023/08/26 08:22:13;;;;;;;3.72;2.80;;;;;;;18.29;100.00;101270.81;4920686;29;20082;-63
2023/08/26 08:24:39;;;;;;;5.97;3.10;;;;;;;18.40;100.00;101267.50;4940145;29;20047;-64
2023/08/26 08:27:04;;;;;;;6.10;3.30;;;;;;;18.56;100.00;101286.06;4941953;29;20115;-63
2023/08/26 08:29:30;;;;;;;4.35;3.03;;;;;;;18.53;100.00;101291.84;4941045;29;20055;-64
2023/08/26 08:31:55;;;;;;;5.05;3.15;;;;;;;18.54;100.00;101266.53;4940133;29;20099;-65
2023/08/26 08:34:21;;;;;;;7.65;4.82;;;;;;;18.75;100.00;101279.91;4939288;29;20148;-64
2023/08/26 08:36:46;;;;;;;3.85;2.83;;;;;;;18.92;100.00;101287.63;4920670;29;20062;-65
2023/08/26 08:39:12;;;;;;;3.05;2.75;;;;;;;19.00;99.04;101282.03;4937933;29;20116;-67
2023/08/26 08:41:41;;;;;;;5.03;2.47;;;;;;;18.98;100.00;101262.50;4920365;29;20491;-62
2023/08/26 08:44:13;;;;;;;3.40;3.10;;;;;;;19.01;100.00;101267.50;4937181;29;20023;-65
2023/08/26 08:46:39;;;;;;;3.55;3.00;;;;;;;19.22;100.00;101280.81;4937567;29;20091;-67
2023/08/26 08:49:05;;;;;;;4.88;2.63;;;;;;;19.26;98.81;101273.97;4937280;29;20024;-65
2023/08/26 08:51:32;;;;;;;3.72;2.60;;;;;;;19.26;96.86;101273.97;4937244;29;20035;-64
2023/08/26 08:54:00;;;;;;;4.47;4.07;;;;;;;19.23;96.89;101252.78;4937071;29;20387;-67
2023/08/26 08:56:26;;;;;;;4.25;2.53;;;;;;;19.62;94.39;101276.25;4937142;29;20036;-64
2023/08/26 08:58:53;;;;;;;3.10;2.80;;;;;;;19.87;93.08;101257.50;4937422;29;20032;-65
2023/08/26 09:01:22;;;;;;;4.70;2.72;;;;;;;20.15;89.13;101257.22;4937294;29;20024;-64
2023/08/26 09:03:47;;;;;;;3.00;2.50;;;;;;;20.46;88.72;101261.06;4920782;29;20578;-66
2023/08/26 09:06:13;;;;;;;3.50;2.25;;;;;;;20.73;87.55;101271.56;4920341;29;20102;-66
2023/08/26 09:08:39;;;;;;;3.08;2.20;;;;;;;20.85;87.22;101265.47;4937038;29;20024;-65
2023/08/26 09:11:05;;;;;;;5.18;2.50;;;;;;;20.76;88.67;101269.44;4937282;29;20551;-61
2023/08/26 09:13:30;;;;;;;3.80;2.30;;;;;;;20.55;90.13;101276.88;4937154;29;20059;-67
2023/08/26 09:15:57;;;;;;;2.70;2.22;;;;;;;20.11;91.78;101281.16;4939057;29;20102;-67
2023/08/26 09:18:22;;;;;;;3.58;3.15;;;;;;;19.66;93.73;101273.97;4938525;29;20031;-63
2023/08/26 09:20:48;;;;;;;3.85;2.80;;;;;;;19.39;96.08;101281.25;4938234;29;20436;-65
2023/08/26 09:23:14;;;;;;;3.85;3.30;;;;;;;18.98;97.94;101241.75;4937565;29;20531;-67
2023/08/26 09:25:59;;;;;;;3.90;2.72;;;;;;;18.97;98.17;101277.03;4938105;29;20397;-68
2023/08/26 09:28:24;;;;;;;5.55;3.10;;;;;;;18.68;99.82;101257.47;4936379;29;20048;-64
2023/08/26 09:31:03;;;;;;;3.45;2.67;;;;;;;18.76;100.00;101288.81;4938275;29;20119;-67
2023/08/26 09:33:29;;;;;;;3.15;2.83;;;;;;;18.64;99.74;101271.56;4937196;29;20027;-65
2023/08/26 09:35:54;;;;;;;3.78;2.75;;;;;;;18.71;99.71;101284.03;4918614;29;20438;-64
2023/08/26 09:38:21;;;;;;;3.38;2.67;;;;;;;18.75;98.46;101277.19;4936341;29;20031;-65
2023/08/26 09:41:00;;;;;;;4.78;2.65;;;;;;;18.80;98.32;101280.16;4936516;29;20058;-67
2023/08/26 09:43:25;;;;;;;4.55;2.88;;;;;;;18.92;98.87;101290.31;4936962;29;20515;-63
2023/08/26 09:45:55;;;;;;;5.20;2.83;;;;;;;19.03;98.37;101297.81;4936684;29;20032;-64
2023/08/26 09:48:22;;;;;;;5.88;2.67;;;;;;;18.96;97.48;101264.59;4936110;29;20467;-66
2023/08/26 09:50:47;;;;;;;5.60;2.78;;;;;;;19.24;95.63;101286.84;4936806;29;20098;-65
2023/08/26 09:53:31;;;;;;;3.00;2.70;;;;;;;19.28;94.87;101289.94;4936477;29;20032;-63
2023/08/26 09:55:58;;;;;;;3.10;2.75;;;;;;;19.21;95.12;101284.56;4919139;29;20412;-65
2023/08/26 09:58:25;;;;;;;3.35;2.22;;;;;;;19.09;94.64;101259.22;4936097;29;20055;-64
2023/08/26 10:00:53;;;;;;;3.72;3.17;;;;;;;19.35;93.52;101291.59;4919359;29;20070;-62
2023/08/26 10:03:24;;;;;;;3.97;2.50;;;;;;;19.59;92.83;101297.47;4937115;29;20028;-63
2023/08/26 10:05:53;;;;;;;4.78;2.90;;;;;;;19.79;90.39;101293.72;4920272;29;20040;-64
2023/08/26 10:08:32;;;;;;;4.80;2.47;;;;;;;19.88;90.13;101302.41;4919586;29;20039;-65
2023/08/26 10:11:02;;;;;;;4.55;2.90;;;;;;;19.46;88.92;101244.25;4919690;29;20034;-68
2023/08/26 10:13:28;;;;;;;4.07;2.95;;;;;;;19.58;89.61;101301.22;4919173;29;20038;-64
2023/08/26 10:15:56;;;;;;;3.78;2.38;;;;;;;19.39;91.11;101314.50;4936603;29;20043;-66
2023/08/26 10:18:53;;;;;;;6.18;3.15;;;;;;;19.16;91.72;101305.94;4936897;29;20031;-65
2023/08/26 10:21:19;;;;;;;4.03;2.45;;;;;;;19.04;92.86;101316.50;4937142;29;20071;-66
2023/08/26 10:23:48;;;;;;;3.17;2.50;;;;;;;19.00;92.77;101325.22;4919623;29;20114;-66
2023/08/26 10:26:14;;;;;;;4.63;3.00;;;;;;;18.93;92.69;101330.59;4941109;29;20024;-64
2023/08/26 10:28:41;;;;;;;3.70;3.05;;;;;;;18.82;92.88;101306.91;4943610;29;20067;-64
2023/08/26 10:31:07;;;;;;;4.22;2.55;;;;;;;19.03;92.77;101322.94;4938609;29;20055;-63
2023/08/26 10:33:57;;;;;;;3.85;2.50;;;;;;;19.26;91.49;101319.03;4947880;29;20031;-64
2023/08/26 10:36:22;;;;;;;6.35;3.00;;;;;;;19.27;89.34;101315.28;4946352;29;20039;-70
2023/08/26 10:38:58;;;;;;;4.90;2.10;;;;;;;19.35;89.14;101301.59;4954892;29;20031;-64
2023/08/26 10:41:25;;;;;;;3.25;2.95;;;;;;;19.46;88.54;101307.22;4954826;29;20132;-65
2023/08/26 10:44:01;;;;;;;2.88;2.30;;;;;;;19.53;88.71;101326.16;4954384;29;20094;-62
2023/08/26 10:46:55;;;;;;;3.28;2.90;;;;;;;19.50;89.07;101297.66;4952594;29;20043;-64
2023/08/26 10:49:28;;;;;;;3.80;2.72;;;;;;;19.54;87.81;101310.78;4948020;29;20028;-65
2023/08/26 10:52:19;;;;;;;2.80;2.42;;;;;;;19.43;88.51;101325.72;4937430;29;20031;-66
2023/08/26 10:54:45;;;;;;;4.72;2.70;;;;;;;19.35;89.20;101313.22;4941322;29;20028;-65
2023/08/26 10:57:11;;;;;;;4.38;2.67;;;;;;;19.43;90.06;101318.44;4937237;29;20031;-66
2023/08/26 10:59:41;;;;;;;4.72;3.00;;;;;;;19.60;87.17;101318.03;4934585;29;20480;-64
2023/08/26 11:02:08;;;;;;;2.72;2.42;;;;;;;19.63;85.90;101293.31;4936001;29;20062;-66
2023/08/26 11:04:42;;;;;;;3.97;2.73;;;;;;;19.93;83.97;101318.00;4935498;29;20062;-67
2023/08/26 11:07:17;;;;;;;3.05;2.35;;;;;;;20.02;84.91;101314.06;4934212;29;20081;-65
2023/08/26 11:09:44;;;;;;;4.07;3.10;;;;;;;20.10;84.87;101311.13;4935339;29;20042;-65
2023/08/26 11:12:26;;;;;;;4.82;3.00;;;;;;;20.16;84.80;101315.66;4935068;29;20082;-64